Time;durP1;ratioP1;P1;durP2;ratioP2;P2;SDS_P1;SDS_P2;PMS_P1;PMS_P2;Temp;Humidity;BMP_temperature;BMP_pressure;BME280_temperature;BME280_humidity;BME280_pressure;Samples;Min_cycle;Max_cycle;Signal;HPM_P1;HPM_P2
2022/11/25 00:01:59;;;;;;;46.50;21.10;;;;;;;;;;6624922;28;20171;-92
2022/11/25 00:05:10;;;;;;;40.83;20.47;;;;;;;;;;6647361;28;20170;-92
2022/11/25 00:08:22;;;;;;;41.43;20.33;;;;;;;;;;6628724;28;20183;-91
2022/11/25 00:11:36;;;;;;;39.43;19.90;;;;;;;;;;6634073;28;20230;-91
2022/11/25 00:14:46;;;;;;;39.07;20.00;;;;;;;;;;6617707;28;20593;-91
2022/11/25 00:17:57;;;;;;;38.80;19.13;;;;;;;;;;6621889;28;20175;-91
2022/11/25 00:21:08;;;;;;;41.30;19.73;;;;;;;;;;6622541;28;20191;-91
2022/11/25 00:24:20;;;;;;;42.80;20.10;;;;;;;;;;6620842;28;20172;-91
2022/11/25 00:27:31;;;;;;;40.97;19.87;;;;;;;;;;6620775;28;20536;-91
2022/11/25 00:30:41;;;;;;;41.37;20.80;;;;;;;;;;6603671;28;20326;-91
2022/11/25 00:33:52;;;;;;;37.27;19.47;;;;;;;;;;6620368;28;20184;-91
2022/11/25 00:37:02;;;;;;;44.23;20.50;;;;;;;;;;6621934;28;20244;-91
2022/11/25 00:40:12;;;;;;;41.17;21.37;;;;;;;;;;6620247;28;20182;-90
2022/11/25 00:46:51;;;;;;;44.87;22.07;;;;;;;;;;6622222;28;20198;-91
2022/11/25 00:50:02;;;;;;;42.87;21.43;;;;;;;;;;6619642;28;20211;-91
2022/11/25 00:53:13;;;;;;;41.57;20.47;;;;;;;;;;6620216;28;20659;-91
2022/11/25 00:56:24;;;;;;;36.70;20.10;;;;;;;;;;6625832;28;20545;-91
2022/11/25 00:59:34;;;;;;;44.20;20.87;;;;;;;;;;6625450;28;20190;-91
2022/11/25 01:02:44;;;;;;;42.83;21.27;;;;;;;;;;6626819;28;20267;-91
2022/11/25 01:05:59;;;;;;;41.60;20.67;;;;;;;;;;6627049;28;20180;-91
2022/11/25 01:09:10;;;;;;;42.57;20.67;;;;;;;;;;6626358;28;20172;-91
2022/11/25 01:12:21;;;;;;;45.90;22.10;;;;;;;;;;6624379;28;20239;-91
2022/11/25 01:15:31;;;;;;;46.67;22.10;;;;;;;;;;6624966;28;20179;-91
2022/11/25 01:18:42;;;;;;;46.17;22.73;;;;;;;;;;6626659;28;20172;-91
2022/11/25 01:21:53;;;;;;;45.93;22.27;;;;;;;;;;6625170;28;20192;-91
2022/11/25 01:25:04;;;;;;;43.47;22.23;;;;;;;;;;6623937;28;20187;-91
2022/11/25 01:28:14;;;;;;;45.47;21.33;;;;;;;;;;6624017;28;20543;-91
2022/11/25 01:31:25;;;;;;;43.83;21.33;;;;;;;;;;6625100;28;20235;-91
2022/11/25 01:34:36;;;;;;;40.30;20.53;;;;;;;;;;6624322;28;20211;-91
2022/11/25 01:37:46;;;;;;;40.20;20.47;;;;;;;;;;6608103;28;20592;-91
2022/11/25 01:40:57;;;;;;;39.47;20.40;;;;;;;;;;6651764;28;20274;-91
2022/11/25 01:44:12;;;;;;;40.00;20.07;;;;;;;;;;6634089;28;20183;-91
2022/11/25 01:47:23;;;;;;;42.30;20.63;;;;;;;;;;6634579;28;20271;-91
2022/11/25 01:50:34;;;;;;;43.73;20.53;;;;;;;;;;6633907;28;20245;-91
2022/11/25 01:53:44;;;;;;;43.53;20.57;;;;;;;;;;6652055;28;20171;-91
2022/11/25 01:56:57;;;;;;;45.43;21.90;;;;;;;;;;6633148;28;20514;-91
2022/11/25 02:00:08;;;;;;;45.13;21.57;;;;;;;;;;6633154;28;20679;-91
2022/11/25 02:03:23;;;;;;;46.67;21.67;;;;;;;;;;6632568;28;20175;-91
2022/11/25 02:06:37;;;;;;;49.20;21.53;;;;;;;;;;6650646;28;20232;-90
2022/11/25 02:09:50;;;;;;;49.33;22.27;;;;;;;;;;6651558;28;20179;-91
2022/11/25 02:13:01;;;;;;;47.37;20.87;;;;;;;;;;6651144;28;20637;-91
2022/11/25 02:16:11;;;;;;;47.60;21.90;;;;;;;;;;6633159;28;20175;-91
2022/11/25 02:19:27;;;;;;;49.93;21.33;;;;;;;;;;6633372;28;20281;-91
2022/11/25 02:23:00;;;;;;;48.03;21.93;;;;;;;;;;6632301;28;20648;-91
2022/11/25 02:26:12;;;;;;;53.17;23.57;;;;;;;;;;6632634;28;20528;-91
2022/11/25 02:29:22;;;;;;;50.00;22.03;;;;;;;;;;6650836;28;20304;-91
2022/11/25 02:32:32;;;;;;;50.97;21.27;;;;;;;;;;6632915;28;20203;-91
2022/11/25 02:35:47;;;;;;;51.87;23.03;;;;;;;;;;6632256;28;20175;-91
2022/11/25 02:38:59;;;;;;;58.27;23.80;;;;;;;;;;6632896;28;20187;-91
2022/11/25 02:42:10;;;;;;;59.47;23.53;;;;;;;;;;6650371;28;20171;-91
2022/11/25 02:45:25;;;;;;;61.77;23.90;;;;;;;;;;6631706;28;20201;-91
2022/11/25 02:48:36;;;;;;;53.53;21.47;;;;;;;;;;6650302;28;20160;-91
2022/11/25 02:51:46;;;;;;;57.17;23.47;;;;;;;;;;6632909;28;20560;-91
2022/11/25 02:54:57;;;;;;;54.77;23.00;;;;;;;;;;6631444;28;20171;-91
2022/11/25 02:58:07;;;;;;;53.00;21.83;;;;;;;;;;6631884;28;20175;-91
2022/11/25 03:01:17;;;;;;;53.70;22.87;;;;;;;;;;6631169;28;20178;-91
2022/11/25 03:04:29;;;;;;;66.30;23.33;;;;;;;;;;6649602;28;20648;-91
2022/11/25 03:07:39;;;;;;;55.27;22.40;;;;;;;;;;6632884;28;20266;-92
2022/11/25 03:10:49;;;;;;;50.03;22.47;;;;;;;;;;6648487;28;20206;-91
2022/11/25 03:14:01;;;;;;;56.17;23.33;;;;;;;;;;6649597;28;20174;-91
2022/11/25 03:17:11;;;;;;;59.23;23.67;;;;;;;;;;6650066;28;20190;-91
2022/11/25 03:20:22;;;;;;;63.43;23.63;;;;;;;;;;6631919;28;20633;-91
2022/11/25 03:23:32;;;;;;;50.07;21.07;;;;;;;;;;6630814;28;20692;-91
2022/11/25 03:26:42;;;;;;;59.13;22.33;;;;;;;;;;6649040;28;20191;-91
2022/11/25 03:29:53;;;;;;;55.30;22.27;;;;;;;;;;6619515;28;20239;-91
2022/11/25 03:33:03;;;;;;;60.80;24.27;;;;;;;;;;6622683;28;20236;-91
2022/11/25 03:36:15;;;;;;;69.33;23.40;;;;;;;;;;6622182;28;20180;-91
2022/11/25 03:39:25;;;;;;;65.13;24.03;;;;;;;;;;6605054;28;20258;-91
2022/11/25 03:42:35;;;;;;;60.93;22.03;;;;;;;;;;6603995;28;20645;-91
2022/11/25 03:45:49;;;;;;;60.10;22.10;;;;;;;;;;6604814;28;20179;-91
2022/11/25 03:48:59;;;;;;;57.57;22.00;;;;;;;;;;6603929;28;20688;-91
2022/11/25 03:52:09;;;;;;;55.93;22.33;;;;;;;;;;6604613;28;20215;-91
2022/11/25 03:55:21;;;;;;;62.63;23.30;;;;;;;;;;6604195;28;20266;-91
2022/11/25 03:58:33;;;;;;;57.80;21.83;;;;;;;;;;6622798;28;20180;-91
2022/11/25 04:01:44;;;;;;;67.10;23.67;;;;;;;;;;6605227;28;20528;-91
2022/11/25 04:04:55;;;;;;;64.80;23.33;;;;;;;;;;6604093;28;20184;-91
2022/11/25 04:08:06;;;;;;;65.40;24.27;;;;;;;;;;6605092;28;20610;-91
2022/11/25 04:11:16;;;;;;;64.00;24.20;;;;;;;;;;6603967;28;20207;-91
2022/11/25 04:14:28;;;;;;;65.37;22.80;;;;;;;;;;6603808;28;20183;-91
2022/11/25 04:17:39;;;;;;;61.80;23.30;;;;;;;;;;6603657;28;20183;-92
2022/11/25 04:20:49;;;;;;;63.93;23.73;;;;;;;;;;6622169;28;20176;-91
2022/11/25 04:23:59;;;;;;;72.13;24.37;;;;;;;;;;6604496;28;20183;-91
2022/11/25 04:27:10;;;;;;;66.03;23.53;;;;;;;;;;6604537;28;20524;-91
2022/11/25 04:30:22;;;;;;;65.83;24.30;;;;;;;;;;6626041;28;20238;-91
2022/11/25 04:33:32;;;;;;;66.43;23.43;;;;;;;;;;6593853;28;20179;-91
2022/11/25 04:36:42;;;;;;;63.33;23.87;;;;;;;;;;6608998;28;20222;-91
2022/11/25 04:39:52;;;;;;;65.70;24.23;;;;;;;;;;6608997;28;20175;-91
2022/11/25 04:43:03;;;;;;;72.47;25.30;;;;;;;;;;6608862;28;20584;-91
2022/11/25 04:46:15;;;;;;;60.90;23.67;;;;;;;;;;6609093;28;20195;-91
2022/11/25 04:49:26;;;;;;;73.83;25.70;;;;;;;;;;6609627;28;20179;-91
2022/11/25 04:52:36;;;;;;;73.03;24.33;;;;;;;;;;6626800;28;20253;-91
2022/11/25 04:55:46;;;;;;;82.00;25.00;;;;;;;;;;6608514;28;20218;-91
2022/11/25 05:02:27;;;;;;;64.63;24.33;;;;;;;;;;6626682;28;20226;-91
2022/11/25 05:05:38;;;;;;;65.03;24.07;;;;;;;;;;6608632;28;20172;-91
2022/11/25 05:08:50;;;;;;;62.63;22.03;;;;;;;;;;6608279;28;20176;-91
2022/11/25 05:12:01;;;;;;;64.40;23.13;;;;;;;;;;6608467;28;20574;-91
2022/11/25 05:15:11;;;;;;;69.67;23.27;;;;;;;;;;6608115;28;20176;-91
2022/11/25 05:18:22;;;;;;;67.60;23.80;;;;;;;;;;6608038;28;20258;-91
2022/11/25 05:21:32;;;;;;;61.37;23.87;;;;;;;;;;6608211;28;20175;-91
2022/11/25 05:24:43;;;;;;;62.37;23.60;;;;;;;;;;6608232;28;20552;-91
2022/11/25 05:27:54;;;;;;;62.67;24.70;;;;;;;;;;6626121;28;20186;-91
2022/11/25 05:31:05;;;;;;;45.23;19.50;;;;;;;;;;6625392;28;20231;-91
2022/11/25 05:34:15;;;;;;;45.03;19.43;;;;;;;;;;6625606;28;20710;-91
2022/11/25 05:37:26;;;;;;;44.07;19.00;;;;;;;;;;6625999;28;20178;-91
2022/11/25 05:40:36;;;;;;;45.63;18.23;;;;;;;;;;6607108;28;20187;-90
2022/11/25 05:43:46;;;;;;;41.37;17.93;;;;;;;;;;6607395;28;20315;-90
2022/11/25 05:46:57;;;;;;;39.40;17.50;;;;;;;;;;6625656;28;20614;-91
2022/11/25 05:50:07;;;;;;;34.13;16.10;;;;;;;;;;6591408;28;20208;-91
2022/11/25 05:53:18;;;;;;;40.47;17.87;;;;;;;;;;6625174;28;20171;-91
2022/11/25 05:56:28;;;;;;;37.93;17.27;;;;;;;;;;6607817;28;20633;-91
2022/11/25 05:59:38;;;;;;;44.60;19.90;;;;;;;;;;6607497;28;20176;-91
2022/11/25 06:02:49;;;;;;;50.53;21.43;;;;;;;;;;6590189;28;20294;-90
2022/11/25 06:06:00;;;;;;;39.23;17.60;;;;;;;;;;6607933;28;20536;-91
2022/11/25 06:09:10;;;;;;;52.93;20.53;;;;;;;;;;6625132;28;20255;-90
2022/11/25 06:12:20;;;;;;;44.23;19.27;;;;;;;;;;6607419;28;20234;-91
2022/11/25 06:15:32;;;;;;;48.97;21.70;;;;;;;;;;6606521;28;20214;-91
2022/11/25 06:18:43;;;;;;;45.03;18.97;;;;;;;;;;6606805;28;20172;-91
2022/11/25 06:21:53;;;;;;;38.40;17.37;;;;;;;;;;6607161;28;20184;-90
2022/11/25 06:25:04;;;;;;;40.80;17.67;;;;;;;;;;6606304;28;20582;-90
2022/11/25 06:28:14;;;;;;;36.13;16.60;;;;;;;;;;6606662;28;20187;-91
2022/11/25 06:31:25;;;;;;;33.90;15.77;;;;;;;;;;6629703;28;20292;-91
2022/11/25 06:34:40;;;;;;;40.13;17.53;;;;;;;;;;6649738;28;20683;-90
2022/11/25 06:37:51;;;;;;;34.60;16.73;;;;;;;;;;6651211;28;20151;-91
2022/11/25 06:41:03;;;;;;;40.80;17.37;;;;;;;;;;6649777;28;20656;-91
2022/11/25 06:44:13;;;;;;;45.70;18.27;;;;;;;;;;6649048;28;20236;-92
2022/11/25 06:47:24;;;;;;;41.53;17.77;;;;;;;;;;6648267;28;20175;-92
2022/11/25 06:50:35;;;;;;;35.40;17.17;;;;;;;;;;6622675;28;20269;-91
2022/11/25 06:53:45;;;;;;;38.33;17.43;;;;;;;;;;6630650;28;20199;-91
2022/11/25 06:56:55;;;;;;;48.53;21.23;;;;;;;;;;6648370;28;20199;-92
2022/11/25 07:00:06;;;;;;;53.10;22.67;;;;;;;;;;6630336;28;20167;-91
2022/11/25 07:03:16;;;;;;;47.33;19.70;;;;;;;;;;6648321;28;20183;-91
2022/11/25 07:06:28;;;;;;;48.53;23.13;;;;;;;;;;6625226;28;20167;-91
2022/11/25 07:09:38;;;;;;;49.60;25.77;;;;;;;;;;6622551;28;20618;-92
2022/11/25 07:12:49;;;;;;;47.67;19.53;;;;;;;;;;6645856;28;20340;-92
2022/11/25 07:16:00;;;;;;;41.73;19.63;;;;;;;;;;6636531;28;20175;-91
2022/11/25 07:19:12;;;;;;;42.80;19.47;;;;;;;;;;6630541;28;20659;-91
2022/11/25 07:22:22;;;;;;;47.50;22.50;;;;;;;;;;6613389;28;20175;-92
2022/11/25 07:25:32;;;;;;;53.97;22.87;;;;;;;;;;6621530;28;20178;-91
2022/11/25 07:28:43;;;;;;;45.70;18.43;;;;;;;;;;6621807;28;20540;-91
2022/11/25 07:31:53;;;;;;;48.03;22.53;;;;;;;;;;6627219;28;20305;-91
2022/11/25 07:35:04;;;;;;;39.77;19.43;;;;;;;;;;6627604;28;20633;-91
2022/11/25 07:38:14;;;;;;;58.87;23.57;;;;;;;;;;6627958;28;20175;-91
2022/11/25 07:41:25;;;;;;;40.57;17.87;;;;;;;;;;6633189;28;20176;-91
2022/11/25 07:44:36;;;;;;;43.73;20.20;;;;;;;;;;6614208;28;20258;-91
2022/11/25 07:47:46;;;;;;;49.10;21.27;;;;;;;;;;6603917;28;20183;-91
2022/11/25 07:50:56;;;;;;;47.17;22.13;;;;;;;;;;6588424;28;20208;-91
2022/11/25 07:54:08;;;;;;;49.73;22.10;;;;;;;;;;6623584;28;20176;-91
2022/11/25 07:57:19;;;;;;;46.33;19.40;;;;;;;;;;6620478;28;20211;-91
2022/11/25 08:00:29;;;;;;;44.83;20.50;;;;;;;;;;6621459;28;20530;-91
2022/11/25 08:03:40;;;;;;;47.63;20.53;;;;;;;;;;6604046;28;20172;-91
2022/11/25 08:06:53;;;;;;;47.70;20.60;;;;;;;;;;6622014;28;20168;-91
2022/11/25 08:10:03;;;;;;;51.07;22.27;;;;;;;;;;6622611;28;20615;-91
2022/11/25 08:13:14;;;;;;;49.40;20.00;;;;;;;;;;6619790;28;20176;-91
2022/11/25 08:16:26;;;;;;;70.80;27.80;;;;;;;;;;6603880;28;20263;-90
2022/11/25 08:19:36;;;;;;;48.93;21.63;;;;;;;;;;6621831;28;20172;-91
2022/11/25 08:22:48;;;;;;;47.63;21.27;;;;;;;;;;6603805;28;20186;-90
2022/11/25 08:26:02;;;;;;;55.87;24.27;;;;;;;;;;6587886;28;20179;-91
2022/11/25 08:29:14;;;;;;;59.47;26.07;;;;;;;;;;6611528;28;20268;-91
2022/11/25 08:32:24;;;;;;;53.00;23.00;;;;;;;;;;6610096;28;20210;-90
2022/11/25 08:35:37;;;;;;;53.27;22.57;;;;;;;;;;6647803;28;20175;-91
2022/11/25 08:38:49;;;;;;;57.00;23.53;;;;;;;;;;6628706;28;20182;-91
2022/11/25 08:42:01;;;;;;;45.90;22.90;;;;;;;;;;6635815;28;20171;-91
2022/11/25 08:45:11;;;;;;;57.23;27.60;;;;;;;;;;6644763;28;20171;-91
2022/11/25 08:48:22;;;;;;;56.93;26.83;;;;;;;;;;6633227;28;20591;-91
2022/11/25 08:51:33;;;;;;;47.57;21.53;;;;;;;;;;6630404;28;20564;-91
2022/11/25 08:54:43;;;;;;;51.77;23.63;;;;;;;;;;6618265;28;20190;-91
2022/11/25 08:57:54;;;;;;;50.07;22.43;;;;;;;;;;6627834;28;20278;-90
2022/11/25 09:01:05;;;;;;;53.47;21.70;;;;;;;;;;6605919;28;20523;-90
2022/11/25 09:04:17;;;;;;;42.10;18.93;;;;;;;;;;6646776;28;20175;-92
2022/11/25 09:07:27;;;;;;;41.23;19.40;;;;;;;;;;6627842;28;20180;-92
2022/11/25 09:10:38;;;;;;;44.77;20.90;;;;;;;;;;6626552;28;20285;-93
2022/11/25 09:13:48;;;;;;;46.17;20.63;;;;;;;;;;6622948;28;20234;-93
2022/11/25 09:17:00;;;;;;;44.57;21.23;;;;;;;;;;6632866;28;20178;-93
2022/11/25 09:20:11;;;;;;;47.43;19.77;;;;;;;;;;6651481;28;20175;-92
2022/11/25 09:23:22;;;;;;;44.83;19.27;;;;;;;;;;6651003;28;20183;-91
2022/11/25 09:26:34;;;;;;;53.60;24.97;;;;;;;;;;6633734;28;20500;-91
2022/11/25 09:29:44;;;;;;;56.57;26.03;;;;;;;;;;6625673;28;20274;-91
2022/11/25 09:32:57;;;;;;;64.77;29.30;;;;;;;;;;6607912;28;20587;-91
2022/11/25 09:36:08;;;;;;;57.43;26.10;;;;;;;;;;6607507;28;20271;-91
2022/11/25 09:39:19;;;;;;;50.20;23.07;;;;;;;;;;6607786;28;20176;-92
2022/11/25 09:46:44;;;;;;;54.57;22.87;;;;;;;;;;6626126;28;20174;-91
2022/11/25 09:50:13;;;;;;;50.73;22.33;;;;;;;;;;6607542;28;20187;-92
2022/11/25 09:53:43;;;;;;;55.73;23.07;;;;;;;;;;6607772;28;20198;-92
2022/11/25 09:57:00;;;;;;;54.83;22.20;;;;;;;;;;6607324;28;20570;-91
2022/11/25 10:00:13;;;;;;;52.50;22.17;;;;;;;;;;6629869;28;20273;-91
2022/11/25 10:03:24;;;;;;;52.23;22.73;;;;;;;;;;6612092;28;20199;-91
2022/11/25 10:06:55;;;;;;;52.00;21.87;;;;;;;;;;6607198;28;20172;-90
2022/11/25 10:10:11;;;;;;;51.13;21.60;;;;;;;;;;6635982;28;20213;-90
2022/11/25 10:13:44;;;;;;;48.30;22.30;;;;;;;;;;6607006;28;20265;-90
2022/11/25 10:17:08;;;;;;;63.17;26.83;;;;;;;;;;6586950;28;20553;-90
2022/11/25 10:20:18;;;;;;;63.37;26.33;;;;;;;;;;6627961;28;20171;-91
2022/11/25 10:23:38;;;;;;;55.57;23.53;;;;;;;;;;6617206;28;20214;-91
2022/11/25 10:26:52;;;;;;;63.80;26.33;;;;;;;;;;6628240;28;20524;-91
2022/11/25 10:30:15;;;;;;;54.23;23.10;;;;;;;;;;6632299;28;20238;-90
2022/11/25 10:33:34;;;;;;;54.57;22.57;;;;;;;;;;6649026;28;20194;-92
2022/11/25 10:36:46;;;;;;;51.10;23.50;;;;;;;;;;6641843;28;20524;-91
2022/11/25 10:39:57;;;;;;;61.57;24.37;;;;;;;;;;6625609;28;20180;-91
2022/11/25 10:43:10;;;;;;;58.57;25.87;;;;;;;;;;6623360;28;20226;-91
2022/11/25 10:46:21;;;;;;;53.87;24.90;;;;;;;;;;6605911;28;20262;-92
2022/11/25 10:49:45;;;;;;;54.57;23.83;;;;;;;;;;6607288;28;20522;-91
2022/11/25 10:53:05;;;;;;;59.83;23.70;;;;;;;;;;6628656;28;20202;-91
2022/11/25 10:56:17;;;;;;;61.97;23.93;;;;;;;;;;6649517;28;20173;-92
2022/11/25 10:59:32;;;;;;;60.07;24.90;;;;;;;;;;6649007;28;20175;-91
2022/11/25 11:02:47;;;;;;;70.40;29.03;;;;;;;;;;6630762;28;20172;-91
2022/11/25 11:05:57;;;;;;;64.57;27.83;;;;;;;;;;6648825;28;20522;-92
2022/11/25 11:09:30;;;;;;;73.53;28.63;;;;;;;;;;6631596;28;20171;-91
2022/11/25 11:12:54;;;;;;;59.07;25.97;;;;;;;;;;6637524;28;20584;-91
2022/11/25 11:16:21;;;;;;;69.83;32.30;;;;;;;;;;6649199;28;20171;-91
2022/11/25 11:19:31;;;;;;;75.43;33.03;;;;;;;;;;6627832;28;20281;-92
2022/11/25 11:22:46;;;;;;;72.63;34.20;;;;;;;;;;6625562;28;20175;-92
2022/11/25 11:26:01;;;;;;;67.53;30.03;;;;;;;;;;6626268;28;20187;-92
2022/11/25 11:29:15;;;;;;;63.53;29.03;;;;;;;;;;6624959;28;20249;-93
2022/11/25 11:32:27;;;;;;;69.93;29.97;;;;;;;;;;6626553;28;20210;-92
2022/11/25 11:35:44;;;;;;;70.83;32.03;;;;;;;;;;6617834;28;20198;-92
2022/11/25 11:38:57;;;;;;;65.07;29.93;;;;;;;;;;6623286;28;20179;-92
2022/11/25 11:42:08;;;;;;;72.27;33.80;;;;;;;;;;6620450;28;20270;-92
2022/11/25 11:45:29;;;;;;;77.23;33.63;;;;;;;;;;6633629;28;20172;-92
2022/11/25 11:48:44;;;;;;;68.60;33.23;;;;;;;;;;6620308;28;20171;-92
2022/11/25 11:51:59;;;;;;;72.83;33.70;;;;;;;;;;6621742;28;20204;-93
2022/11/25 11:55:23;;;;;;;71.90;32.33;;;;;;;;;;6624034;28;20188;-93
2022/11/25 11:58:36;;;;;;;76.00;32.23;;;;;;;;;;6623165;28;20206;-92
2022/11/25 12:01:52;;;;;;;71.23;31.93;;;;;;;;;;6635109;28;20504;-92
2022/11/25 12:05:09;;;;;;;70.27;32.30;;;;;;;;;;6617235;28;20179;-92
2022/11/25 12:08:20;;;;;;;73.57;33.67;;;;;;;;;;6633642;28;20211;-92
2022/11/25 12:11:41;;;;;;;75.70;35.53;;;;;;;;;;6637301;28;20564;-93
2022/11/25 12:14:58;;;;;;;84.03;37.23;;;;;;;;;;6621123;28;20171;-92
2022/11/25 12:18:14;;;;;;;88.87;39.10;;;;;;;;;;6633726;28;20180;-93
2022/11/25 12:21:35;;;;;;;85.43;39.40;;;;;;;;;;6621518;28;20527;-92
2022/11/25 12:24:51;;;;;;;73.60;33.53;;;;;;;;;;6620059;28;20187;-92
2022/11/25 12:28:09;;;;;;;83.47;36.83;;;;;;;;;;6616770;28;20556;-92
2022/11/25 12:31:29;;;;;;;71.93;34.93;;;;;;;;;;6634576;28;20258;-92
2022/11/25 12:34:47;;;;;;;78.93;35.47;;;;;;;;;;6617144;28;20202;-93
2022/11/25 12:38:10;;;;;;;72.57;33.17;;;;;;;;;;6620697;28;20237;-92
2022/11/25 12:41:36;;;;;;;77.10;35.07;;;;;;;;;;6615082;28;20179;-92
2022/11/25 12:44:58;;;;;;;80.47;34.97;;;;;;;;;;6626030;28;20539;-92
2022/11/25 12:48:10;;;;;;;76.73;33.77;;;;;;;;;;6630291;28;20172;-92
2022/11/25 12:51:39;;;;;;;78.43;31.67;;;;;;;;;;6622473;28;20239;-91
2022/11/25 12:54:49;;;;;;;67.30;31.90;;;;;;;;;;6628217;28;20266;-92
2022/11/25 12:58:17;;;;;;;74.83;35.83;;;;;;;;;;6637859;28;20622;-92
2022/11/25 13:01:39;;;;;;;79.87;36.10;;;;;;;;;;6621407;28;20539;-92
2022/11/25 13:05:21;;;;;;;83.33;38.30;;;;;;;;;;6636193;28;20184;-92
2022/11/25 13:08:53;;;;;;;71.00;34.07;;;;;;;;;;6560542;28;20245;-92
2022/11/25 13:12:06;;;;;;;68.47;32.23;;;;;;;;;;6634123;28;20214;-91
2022/11/25 13:15:23;;;;;;;73.20;33.87;;;;;;;;;;6622408;28;20237;-92
2022/11/25 13:18:37;;;;;;;77.10;32.50;;;;;;;;;;6623907;28;20164;-91
2022/11/25 13:22:01;;;;;;;78.43;35.57;;;;;;;;;;6624137;28;20583;-92
2022/11/25 13:25:24;;;;;;;85.23;38.90;;;;;;;;;;6626852;28;20191;-92
2022/11/25 13:28:36;;;;;;;85.57;37.87;;;;;;;;;;6621184;28;20171;-92
2022/11/25 13:31:57;;;;;;;80.07;35.80;;;;;;;;;;6622054;28;20203;-92
2022/11/25 13:35:25;;;;;;;81.10;36.07;;;;;;;;;;6625349;28;20268;-91
2022/11/25 13:38:58;;;;;;;85.57;35.37;;;;;;;;;;6626593;28;20269;-92
2022/11/25 13:42:16;;;;;;;78.70;35.23;;;;;;;;;;6626539;28;20171;-91
2022/11/25 13:45:33;;;;;;;86.40;37.63;;;;;;;;;;6634187;28;20172;-92
2022/11/25 13:48:43;;;;;;;91.13;39.17;;;;;;;;;;6623098;28;20186;-92
2022/11/25 13:51:55;;;;;;;91.70;41.47;;;;;;;;;;6622628;28;20230;-91
2022/11/25 13:55:29;;;;;;;87.00;40.53;;;;;;;;;;6616646;28;20170;-91
2022/11/25 13:58:59;;;;;;;81.03;35.57;;;;;;;;;;6637385;28;20274;-91
2022/11/25 14:02:24;;;;;;;80.93;37.23;;;;;;;;;;6636614;28;20574;-91
2022/11/25 14:06:00;;;;;;;85.77;38.10;;;;;;;;;;6618812;28;20266;-91
2022/11/25 14:09:11;;;;;;;80.60;37.07;;;;;;;;;;6597225;28;20558;-91
2022/11/25 14:12:27;;;;;;;77.60;34.93;;;;;;;;;;6615380;28;20214;-93
2022/11/25 14:15:51;;;;;;;73.73;33.67;;;;;;;;;;6622803;28;20542;-93
2022/11/25 14:19:05;;;;;;;82.00;36.93;;;;;;;;;;6627762;28;20172;-93
2022/11/25 14:25:53;;;;;;;80.47;35.40;;;;;;;;;;6637316;28;20237;-93
2022/11/25 14:29:33;;;;;;;71.40;32.30;;;;;;;;;;6623894;28;20568;-93
2022/11/25 14:32:59;;;;;;;77.93;32.47;;;;;;;;;;6606160;28;20306;-92
2022/11/25 14:36:12;;;;;;;80.00;34.83;;;;;;;;;;6611177;28;20179;-91
2022/11/25 14:39:38;;;;;;;71.67;35.97;;;;;;;;;;6636991;28;20503;-91
2022/11/25 14:42:50;;;;;;;81.47;37.57;;;;;;;;;;6636311;28;20179;-91
2022/11/25 14:46:16;;;;;;;88.30;37.37;;;;;;;;;;6628823;28;20514;-91
2022/11/25 14:49:46;;;;;;;78.10;34.27;;;;;;;;;;6632269;28;20183;-93
2022/11/25 14:52:57;;;;;;;89.80;35.83;;;;;;;;;;6626218;28;20222;-93
2022/11/25 14:56:14;;;;;;;91.40;39.10;;;;;;;;;;6635029;28;20217;-93
2022/11/25 14:59:25;;;;;;;95.13;44.13;;;;;;;;;;6650472;28;20179;-93
2022/11/25 15:02:38;;;;;;;99.40;44.20;;;;;;;;;;6631300;28;20175;-93
2022/11/25 15:05:53;;;;;;;94.57;43.97;;;;;;;;;;6638824;28;20256;-93
2022/11/25 15:09:16;;;;;;;106.77;45.47;;;;;;;;;;6602581;28;20704;-93
2022/11/25 15:12:30;;;;;;;119.90;54.60;;;;;;;;;;6621628;28;20196;-93
2022/11/25 15:15:43;;;;;;;135.67;58.33;;;;;;;;;;6637254;28;20267;-93
2022/11/25 15:18:53;;;;;;;152.50;65.50;;;;;;;;;;6632508;28;20352;-93
2022/11/25 15:22:05;;;;;;;134.87;61.47;;;;;;;;;;6632045;28;20183;-92
2022/11/25 15:25:19;;;;;;;110.50;50.50;;;;;;;;;;6630759;28;20178;-93
2022/11/25 15:28:33;;;;;;;128.27;59.67;;;;;;;;;;6631837;28;20164;-92
2022/11/25 15:31:45;;;;;;;143.50;61.00;;;;;;;;;;6648480;28;20707;-92
2022/11/25 15:34:58;;;;;;;126.60;56.63;;;;;;;;;;6631789;28;20200;-93
2022/11/25 15:38:27;;;;;;;121.67;50.53;;;;;;;;;;6630446;28;20186;-93
2022/11/25 15:41:39;;;;;;;123.50;56.33;;;;;;;;;;6630509;28;20183;-92
2022/11/25 15:44:58;;;;;;;159.40;67.10;;;;;;;;;;6630303;28;20175;-92
2022/11/25 15:48:15;;;;;;;155.47;69.70;;;;;;;;;;6616782;28;20649;-92
2022/11/25 15:51:29;;;;;;;153.70;67.20;;;;;;;;;;6607437;28;20239;-91
2022/11/25 15:54:43;;;;;;;185.50;79.87;;;;;;;;;;6636059;28;20180;-91
2022/11/25 15:57:54;;;;;;;157.43;66.73;;;;;;;;;;6610036;28;20187;-92
2022/11/25 16:01:04;;;;;;;139.60;56.90;;;;;;;;;;6622847;28;20195;-91
2022/11/25 16:04:18;;;;;;;145.53;60.13;;;;;;;;;;6607973;28;20218;-92
2022/11/25 16:07:28;;;;;;;137.13;55.83;;;;;;;;;;6629106;28;20274;-92
2022/11/25 16:10:41;;;;;;;139.30;55.03;;;;;;;;;;6647862;28;20587;-91
2022/11/25 16:13:52;;;;;;;130.77;55.57;;;;;;;;;;6630797;28;20633;-92
2022/11/25 16:17:04;;;;;;;183.60;74.23;;;;;;;;;;6628759;28;20182;-91
2022/11/25 16:20:18;;;;;;;145.23;56.10;;;;;;;;;;6639290;28;20194;-93
2022/11/25 16:23:30;;;;;;;146.97;55.50;;;;;;;;;;6635259;28;20576;-92
2022/11/25 16:26:56;;;;;;;146.80;55.30;;;;;;;;;;6625553;28;20218;-90
2022/11/25 16:30:17;;;;;;;175.63;69.57;;;;;;;;;;6621394;28;20235;-93
2022/11/25 16:33:27;;;;;;;191.07;81.33;;;;;;;;;;6624572;28;20199;-91
2022/11/25 16:36:37;;;;;;;177.10;70.27;;;;;;;;;;6649558;28;20203;-91
2022/11/25 16:39:48;;;;;;;322.03;142.90;;;;;;;;;;6641354;28;20237;-91
2022/11/25 16:42:59;;;;;;;296.70;132.70;;;;;;;;;;6623524;28;20171;-91
2022/11/25 16:46:13;;;;;;;134.40;61.50;;;;;;;;;;6624096;28;20171;-92
2022/11/25 16:49:24;;;;;;;140.80;55.73;;;;;;;;;;6624689;28;20167;-91
2022/11/25 16:52:34;;;;;;;175.20;67.13;;;;;;;;;;6623338;28;20215;-91
2022/11/25 16:55:45;;;;;;;151.37;60.17;;;;;;;;;;6622469;28;20183;-91
2022/11/25 16:58:56;;;;;;;159.03;67.00;;;;;;;;;;6638628;28;20210;-90
2022/11/25 17:02:14;;;;;;;187.00;87.83;;;;;;;;;;6652505;28;20218;-90
2022/11/25 17:05:25;;;;;;;182.97;80.23;;;;;;;;;;6652266;28;20190;-90
2022/11/25 17:08:35;;;;;;;146.73;70.27;;;;;;;;;;6627698;28;20630;-90
2022/11/25 17:11:53;;;;;;;127.83;50.73;;;;;;;;;;6637401;28;20203;-91
2022/11/25 17:15:06;;;;;;;103.63;42.17;;;;;;;;;;6637237;28;20537;-89
2022/11/25 17:18:17;;;;;;;101.37;44.33;;;;;;;;;;6628235;28;20179;-88
2022/11/25 17:21:27;;;;;;;131.77;50.63;;;;;;;;;;6622919;28;20270;-88
2022/11/25 17:24:38;;;;;;;110.03;45.83;;;;;;;;;;6624834;28;20183;-88
2022/11/25 17:27:48;;;;;;;106.87;45.13;;;;;;;;;;6634798;28;20176;-88
2022/11/25 17:30:59;;;;;;;111.57;46.67;;;;;;;;;;6635868;28;20293;-89
2022/11/25 17:34:14;;;;;;;111.87;47.00;;;;;;;;;;6635991;28;20175;-89
2022/11/25 17:37:25;;;;;;;107.57;45.47;;;;;;;;;;6634741;28;20583;-88
2022/11/25 17:40:37;;;;;;;102.50;43.63;;;;;;;;;;6637372;28;20171;-89
2022/11/25 17:43:48;;;;;;;116.47;47.50;;;;;;;;;;6637214;28;20171;-88
2022/11/25 17:46:59;;;;;;;101.93;43.67;;;;;;;;;;6623990;28;20203;-88
2022/11/25 17:50:17;;;;;;;94.60;40.63;;;;;;;;;;6641619;28;20232;-88
2022/11/25 17:53:27;;;;;;;94.83;38.97;;;;;;;;;;6627879;28;20653;-88
2022/11/25 17:56:38;;;;;;;92.77;37.80;;;;;;;;;;6627421;28;20175;-88
2022/11/25 17:59:48;;;;;;;93.37;38.70;;;;;;;;;;6605486;28;20637;-88
2022/11/25 18:02:59;;;;;;;119.07;55.93;;;;;;;;;;6626943;28;20229;-88
2022/11/25 18:06:10;;;;;;;103.77;44.67;;;;;;;;;;6638315;28;20573;-88
2022/11/25 18:09:20;;;;;;;104.97;45.80;;;;;;;;;;6629713;28;20215;-88
2022/11/25 18:12:32;;;;;;;122.90;50.47;;;;;;;;;;6628190;28;20207;-88
2022/11/25 18:15:43;;;;;;;107.33;49.50;;;;;;;;;;6638633;28;20180;-89
2022/11/25 18:18:53;;;;;;;102.63;46.73;;;;;;;;;;6636371;28;20542;-89
2022/11/25 18:22:11;;;;;;;120.07;48.23;;;;;;;;;;6636558;28;20212;-89
2022/11/25 18:25:23;;;;;;;102.90;45.30;;;;;;;;;;6639168;28;20176;-89
2022/11/25 18:28:33;;;;;;;102.83;46.27;;;;;;;;;;6635910;28;20171;-89
2022/11/25 18:31:44;;;;;;;104.57;50.03;;;;;;;;;;6601199;28;20282;-89
2022/11/25 18:34:55;;;;;;;105.97;49.63;;;;;;;;;;6611646;28;20179;-88
2022/11/25 18:38:05;;;;;;;94.27;45.13;;;;;;;;;;6610368;28;20211;-89
2022/11/25 18:41:20;;;;;;;119.30;53.17;;;;;;;;;;6609825;28;20263;-89
2022/11/25 18:44:34;;;;;;;121.93;56.07;;;;;;;;;;6612773;28;20251;-89
2022/11/25 18:47:45;;;;;;;117.63;54.73;;;;;;;;;;6609171;28;20176;-89
2022/11/25 18:50:56;;;;;;;114.97;50.30;;;;;;;;;;6608900;28;20251;-88
2022/11/25 18:54:07;;;;;;;102.63;47.33;;;;;;;;;;6609828;28;20184;-88
2022/11/25 18:57:17;;;;;;;90.80;42.43;;;;;;;;;;6610630;28;20208;-88